Time;durP1;ratioP1;P1;durP2;ratioP2;P2;SDS_P1;SDS_P2;PMS_P1;PMS_P2;Temp;Humidity;BMP_temperature;BMP_pressure;BME280_temperature;BME280_humidity;BME280_pressure;Samples;Min_cycle;Max_cycle;Signal;HPM_P1;HPM_P2
2023/03/25 00:00:13;;;;;;;1.75;1.02;;;10.10;78.00;;;;;;5012371;28;20080;-61
2023/03/25 00:02:39;;;;;;;1.57;0.80;;;10.10;78.00;;;;;;5014576;28;20042;-59
2023/03/25 00:05:05;;;;;;;1.77;0.77;;;10.10;78.00;;;;;;5018310;28;20652;-58
2023/03/25 00:07:32;;;;;;;1.60;0.93;;;10.20;78.00;;;;;;5014293;28;20041;-59
2023/03/25 00:09:57;;;;;;;1.42;0.75;;;10.20;77.90;;;;;;5014162;28;20136;-59
2023/03/25 00:12:23;;;;;;;2.10;0.90;;;10.20;77.70;;;;;;5018835;28;20118;-60
2023/03/25 00:14:54;;;;;;;2.40;0.60;;;10.20;77.50;;;;;;5018580;28;20117;-61
2023/03/25 00:17:22;;;;;;;1.48;0.68;;;10.20;77.70;;;;;;5016068;28;20394;-60
2023/03/25 00:19:50;;;;;;;1.33;0.57;;;10.30;77.30;;;;;;5016516;28;20026;-60
2023/03/25 00:22:19;;;;;;;1.85;0.60;;;10.30;77.20;;;;;;5016447;28;20042;-61
2023/03/25 00:24:45;;;;;;;2.38;0.65;;;10.30;76.90;;;;;;5016654;28;20418;-59
2023/03/25 00:27:13;;;;;;;2.35;0.60;;;10.30;76.80;;;;;;5017241;28;20052;-60
2023/03/25 00:29:40;;;;;;;1.38;0.60;;;10.30;76.60;;;;;;5018493;28;20042;-60
2023/03/25 00:32:05;;;;;;;1.88;0.60;;;10.30;76.40;;;;;;5019177;28;20038;-59
2023/03/25 00:34:34;;;;;;;2.80;0.60;;;10.30;76.40;;;;;;5018181;28;20053;-59
2023/03/25 00:37:01;;;;;;;1.17;0.60;;;10.30;76.30;;;;;;5014678;28;20092;-61
2023/03/25 00:39:27;;;;;;;1.48;0.60;;;10.30;76.30;;;;;;5015093;28;20509;-58
2023/03/25 00:41:56;;;;;;;1.52;0.70;;;10.40;76.30;;;;;;5016940;28;20045;-59
2023/03/25 00:44:21;;;;;;;2.30;0.90;;;10.30;76.30;;;;;;5015461;28;20390;-60
2023/03/25 00:46:47;;;;;;;1.77;0.60;;;10.30;76.30;;;;;;5014894;28;20053;-60
2023/03/25 00:49:13;;;;;;;3.60;0.60;;;10.30;76.40;;;;;;5016523;28;20397;-61
2023/03/25 00:51:38;;;;;;;2.10;0.80;;;10.30;76.30;;;;;;5015514;28;20042;-61
2023/03/25 00:54:04;;;;;;;3.38;0.85;;;10.30;76.30;;;;;;5017406;28;20497;-61
2023/03/25 00:56:30;;;;;;;2.00;0.60;;;10.30;76.30;;;;;;5014102;28;20033;-60
2023/03/25 00:58:56;;;;;;;4.40;0.80;;;10.30;76.30;;;;;;5017805;28;20041;-59
2023/03/25 01:01:27;;;;;;;5.20;1.00;;;10.30;76.30;;;;;;5018712;28;20037;-60
2023/03/25 01:03:58;;;;;;;3.00;0.70;;;10.30;76.30;;;;;;5018738;28;20405;-60
2023/03/25 01:06:27;;;;;;;0.80;0.60;;;10.30;76.30;;;;;;5016514;28;20091;-61
2023/03/25 01:08:57;;;;;;;3.50;0.80;;;10.30;76.30;;;;;;5014795;28;20034;-61
2023/03/25 01:11:25;;;;;;;2.22;0.90;;;10.30;76.30;;;;;;5015120;28;20041;-60
2023/03/25 01:13:53;;;;;;;3.33;0.90;;;10.30;76.30;;;;;;5012544;28;20124;-59
2023/03/25 01:16:18;;;;;;;3.63;0.98;;;10.30;76.20;;;;;;5013823;28;20033;-61
2023/03/25 01:18:44;;;;;;;3.42;0.80;;;10.30;76.30;;;;;;5015903;28;20064;-58
2023/03/25 01:21:09;;;;;;;1.75;0.77;;;10.30;76.30;;;;;;5016373;28;20037;-59
2023/03/25 01:23:35;;;;;;;2.45;0.80;;;10.30;76.30;;;;;;5014995;28;20441;-60
2023/03/25 01:26:00;;;;;;;1.52;0.60;;;10.30;76.30;;;;;;5012620;28;20121;-58
2023/03/25 01:28:27;;;;;;;1.75;0.68;;;10.30;76.30;;;;;;5015773;28;20033;-59
2023/03/25 01:31:00;;;;;;;2.05;0.80;;;10.30;76.30;;;;;;5015663;28;20041;-60
2023/03/25 01:33:26;;;;;;;1.88;0.80;;;10.20;76.30;;;;;;5017292;28;20049;-60
2023/03/25 01:35:52;;;;;;;2.38;0.90;;;10.30;76.30;;;;;;5018602;28;20462;-59
2023/03/25 01:38:17;;;;;;;1.48;0.57;;;10.20;76.10;;;;;;5016785;28;20045;-60
2023/03/25 01:40:45;;;;;;;2.55;0.60;;;10.20;76.10;;;;;;5018192;28;20034;-60
2023/03/25 01:43:12;;;;;;;2.17;0.60;;;10.20;76.20;;;;;;5016086;28;20446;-59
2023/03/25 01:45:38;;;;;;;5.03;0.82;;;10.20;76.20;;;;;;5015516;28;20179;-60
2023/03/25 01:48:22;;;;;;;2.17;0.57;;;10.10;76.10;;;;;;5014349;28;20034;-58
2023/03/25 01:50:58;;;;;;;1.88;0.70;;;10.10;76.10;;;;;;5016015;28;20160;-59
2023/03/25 01:53:27;;;;;;;2.10;0.75;;;10.10;76.00;;;;;;5013265;28;20053;-59
2023/03/25 01:55:53;;;;;;;1.60;0.60;;;10.10;75.90;;;;;;5014390;28;20037;-59
2023/03/25 01:58:20;;;;;;;2.95;0.52;;;10.10;75.80;;;;;;5013114;28;20102;-60
2023/03/25 02:00:49;;;;;;;3.33;0.88;;;10.10;75.80;;;;;;5015875;28;20057;-59
2023/03/25 02:03:16;;;;;;;2.42;0.60;;;10.10;75.80;;;;;;5017620;28;20030;-59
2023/03/25 02:05:58;;;;;;;2.08;0.63;;;10.10;75.80;;;;;;5012326;28;20092;-60
2023/03/25 02:08:24;;;;;;;4.30;0.85;;;10.10;75.70;;;;;;5012506;28;20127;-59
2023/03/25 02:10:51;;;;;;;2.58;0.60;;;10.00;75.60;;;;;;5013660;28;20033;-61
2023/03/25 02:13:17;;;;;;;4.22;0.73;;;10.00;75.60;;;;;;5012338;28;20068;-60
2023/03/25 02:16:04;;;;;;;2.95;0.70;;;10.00;75.60;;;;;;5013781;28;20409;-60
2023/03/25 02:18:38;;;;;;;4.82;0.65;;;10.00;75.50;;;;;;5010930;28;20061;-59
2023/03/25 02:21:32;;;;;;;2.17;0.50;;;10.00;75.50;;;;;;5013337;28;20518;-61
2023/03/25 02:24:24;;;;;;;4.05;1.10;;;9.90;75.50;;;;;;5013382;28;20095;-61
2023/03/25 02:27:26;;;;;;;4.07;0.68;;;10.00;75.50;;;;;;5013264;28;20048;-60
2023/03/25 02:30:10;;;;;;;2.63;0.70;;;10.00;75.50;;;;;;5015536;28;20476;-61
2023/03/25 02:33:06;;;;;;;2.47;0.63;;;10.00;75.60;;;;;;5015031;28;20499;-59
2023/03/25 02:35:35;;;;;;;2.53;0.50;;;9.90;75.50;;;;;;5014333;28;20133;-60
2023/03/25 02:38:39;;;;;;;6.57;0.60;;;9.90;75.50;;;;;;5015836;28;20026;-60
2023/03/25 02:41:16;;;;;;;3.50;0.43;;;9.90;75.60;;;;;;5012779;28;20049;-60
2023/03/25 02:43:50;;;;;;;3.40;0.55;;;9.90;75.60;;;;;;5011195;28;20229;-61
2023/03/25 02:46:18;;;;;;;3.38;0.65;;;9.90;75.60;;;;;;5009061;28;20037;-60
2023/03/25 02:48:59;;;;;;;2.53;0.43;;;9.80;75.50;;;;;;5010453;28;20042;-61
2023/03/25 02:51:30;;;;;;;1.75;0.50;;;9.90;75.60;;;;;;5011069;28;20033;-60
2023/03/25 02:54:01;;;;;;;2.65;0.50;;;9.80;75.60;;;;;;5011872;28;20040;-58
2023/03/25 02:56:31;;;;;;;3.22;0.55;;;9.90;75.60;;;;;;5010729;28;20583;-60
2023/03/25 02:58:59;;;;;;;4.82;0.63;;;9.80;75.50;;;;;;5009909;28;20045;-61
2023/03/25 03:01:25;;;;;;;2.53;0.45;;;9.80;75.50;;;;;;5012106;28;20033;-61
2023/03/25 03:03:52;;;;;;;2.60;0.60;;;9.80;75.50;;;;;;5013592;28;20041;-60
2023/03/25 03:06:19;;;;;;;2.70;0.50;;;9.80;75.50;;;;;;5011636;28;20038;-58
2023/03/25 03:08:50;;;;;;;3.03;0.57;;;9.80;75.50;;;;;;5012301;28;20026;-60
2023/03/25 03:11:24;;;;;;;3.78;0.75;;;9.80;75.60;;;;;;5012989;28;20083;-62
2023/03/25 03:13:56;;;;;;;2.88;0.60;;;9.80;75.60;;;;;;5011963;28;20497;-60
2023/03/25 03:16:31;;;;;;;5.78;0.80;;;9.80;75.60;;;;;;5009374;28;20073;-59
2023/03/25 03:19:36;;;;;;;1.65;0.50;;;9.80;75.60;;;;;;5011892;28;20103;-60
2023/03/25 03:22:12;;;;;;;2.13;0.63;;;9.80;75.80;;;;;;5011771;28;20033;-59
2023/03/25 03:25:08;;;;;;;3.15;0.55;;;9.80;75.60;;;;;;5012459;28;20049;-59
2023/03/25 03:27:54;;;;;;;2.10;0.50;;;9.80;75.60;;;;;;5011178;28;20041;-59
2023/03/25 03:30:23;;;;;;;3.50;0.60;;;9.80;75.70;;;;;;5012318;28;20481;-59
2023/03/25 03:33:14;;;;;;;2.67;0.73;;;9.90;75.60;;;;;;5012507;28;20068;-59
2023/03/25 03:35:49;;;;;;;3.33;0.57;;;9.90;75.80;;;;;;5015176;28;20029;-60
2023/03/25 03:38:17;;;;;;;1.45;0.40;;;9.90;75.70;;;;;;5013702;28;20042;-58
2023/03/25 03:40:48;;;;;;;2.28;0.47;;;9.90;75.60;;;;;;5014558;28;20136;-60
2023/03/25 03:43:40;;;;;;;0.75;0.40;;;9.90;75.60;;;;;;5011515;28;20049;-58
2023/03/25 03:46:14;;;;;;;4.75;0.70;;;9.90;75.60;;;;;;5013230;28;20072;-59
2023/03/25 03:48:46;;;;;;;3.22;0.50;;;9.90;75.70;;;;;;5009876;28;20564;-59
2023/03/25 03:51:20;;;;;;;3.22;0.65;;;9.90;76.10;;;;;;5014345;28;20041;-59
2023/03/25 03:53:59;;;;;;;4.53;0.60;;;9.90;76.40;;;;;;5015167;28;20444;-59
2023/03/25 03:56:27;;;;;;;3.72;0.98;;;9.90;76.50;;;;;;5011863;28;20037;-59
2023/03/25 03:58:58;;;;;;;2.85;0.70;;;9.90;76.80;;;;;;5011824;28;20214;-60
2023/03/25 04:01:57;;;;;;;1.38;0.60;;;9.80;76.50;;;;;;5012045;28;20040;-60
2023/03/25 04:04:25;;;;;;;3.10;0.80;;;9.80;77.10;;;;;;5009987;28;20132;-59
2023/03/25 04:06:55;;;;;;;3.03;0.70;;;9.80;76.50;;;;;;5012688;28;20092;-61
2023/03/25 04:09:26;;;;;;;3.95;0.68;;;9.70;76.60;;;;;;5012004;28;20604;-60
2023/03/25 04:11:57;;;;;;;2.38;0.55;;;9.70;76.80;;;;;;5013720;28;20088;-61
2023/03/25 04:14:24;;;;;;;2.58;0.80;;;9.70;76.80;;;;;;5010630;28;20076;-59
2023/03/25 04:16:51;;;;;;;3.35;0.65;;;9.70;76.80;;;;;;5011930;28;20034;-61
2023/03/25 04:19:18;;;;;;;2.67;0.60;;;9.70;76.80;;;;;;5010212;28;20065;-60
2023/03/25 04:21:46;;;;;;;2.58;0.60;;;9.70;76.80;;;;;;5012920;28;20057;-60
2023/03/25 04:24:15;;;;;;;3.20;0.70;;;9.70;76.80;;;;;;5010054;28;20036;-59
2023/03/25 04:26:42;;;;;;;2.72;0.70;;;9.70;76.70;;;;;;5014210;28;20072;-60
2023/03/25 04:29:08;;;;;;;4.45;0.55;;;9.70;76.70;;;;;;5013646;28;20123;-61
2023/03/25 04:31:36;;;;;;;2.30;0.73;;;9.70;76.60;;;;;;5013214;28;20030;-59
2023/03/25 04:34:03;;;;;;;1.40;0.35;;;9.70;76.40;;;;;;5013082;28;20037;-61
2023/03/25 04:36:32;;;;;;;1.92;0.20;;;9.60;76.30;;;;;;5012572;28;20121;-60
2023/03/25 04:38:58;;;;;;;3.42;0.50;;;9.60;76.30;;;;;;5011019;28;20189;-61
2023/03/25 04:41:25;;;;;;;3.03;0.60;;;9.60;76.20;;;;;;5010361;28;20030;-61
2023/03/25 04:43:50;;;;;;;1.02;0.35;;;9.70;76.10;;;;;;5011309;28;20565;-59
2023/03/25 04:46:17;;;;;;;1.88;0.40;;;9.80;76.00;;;;;;5011009;28;20095;-59
2023/03/25 04:48:46;;;;;;;2.25;0.52;;;9.60;75.80;;;;;;5012748;28;20037;-60
2023/03/25 04:51:12;;;;;;;2.85;0.57;;;9.60;75.60;;;;;;5013562;28;20296;-59
2023/03/25 04:53:39;;;;;;;2.17;0.50;;;9.60;75.60;;;;;;5015263;28;20519;-61
2023/03/25 04:56:06;;;;;;;0.70;0.20;;;9.60;75.60;;;;;;5015072;28;20041;-59
2023/03/25 04:58:32;;;;;;;9.25;5.22;;;9.60;75.50;;;;;;5014889;28;20045;-60
2023/03/25 05:01:04;;;;;;;14.55;6.47;;;9.60;75.60;;;;;;5013328;28;20516;-60
2023/03/25 05:03:31;;;;;;;51.90;14.57;;;9.50;75.40;;;;;;5015095;28;20438;-60
2023/03/25 05:05:56;;;;;;;9.40;3.20;;;9.50;75.20;;;;;;5016823;28;20108;-60
2023/03/25 05:08:22;;;;;;;6.88;1.75;;;9.50;75.10;;;;;;5014557;28;20493;-61
2023/03/25 05:10:48;;;;;;;4.15;2.45;;;9.50;74.90;;;;;;5014873;28;20567;-60
2023/03/25 05:13:14;;;;;;;4.25;1.60;;;9.50;74.90;;;;;;5012964;28;20033;-58
2023/03/25 05:15:39;;;;;;;10.30;5.70;;;9.40;74.70;;;;;;5012487;28;20052;-60
2023/03/25 05:18:13;;;;;;;14.60;7.18;;;9.40;74.70;;;;;;5013663;28;20071;-60
2023/03/25 05:20:40;;;;;;;13.52;7.82;;;9.40;74.60;;;;;;5013783;28;20044;-60
2023/03/25 05:23:11;;;;;;;11.23;6.43;;;9.40;74.40;;;;;;5016140;28;20040;-59
2023/03/25 05:25:40;;;;;;;8.70;5.35;;;9.30;74.40;;;;;;5016339;28;20293;-59
2023/03/25 05:28:08;;;;;;;2.47;1.42;;;9.30;74.20;;;;;;5013529;28;20079;-60
2023/03/25 05:30:37;;;;;;;2.03;0.88;;;9.20;74.00;;;;;;5013986;28;20663;-57
2023/03/25 05:33:04;;;;;;;1.67;0.60;;;9.20;73.90;;;;;;5015299;28;20505;-59
2023/03/25 05:35:30;;;;;;;0.73;0.40;;;9.20;73.90;;;;;;5011169;28;20073;-60
2023/03/25 05:37:55;;;;;;;1.38;0.40;;;9.10;73.90;;;;;;5013701;28;20057;-58
2023/03/25 05:40:21;;;;;;;0.77;0.40;;;9.10;74.00;;;;;;5012900;28;20034;-60
2023/03/25 05:42:47;;;;;;;0.93;0.20;;;9.00;73.90;;;;;;5011173;28;20046;-59
2023/03/25 05:45:16;;;;;;;1.77;0.47;;;9.00;74.00;;;;;;5012378;28;20034;-58
2023/03/25 05:47:42;;;;;;;2.05;0.30;;;9.00;74.20;;;;;;5013650;28;20048;-59
2023/03/25 05:50:09;;;;;;;1.67;0.30;;;8.90;75.10;;;;;;5011421;28;20026;-59
2023/03/25 05:52:35;;;;;;;1.80;0.50;;;8.90;74.20;;;;;;5012561;28;20501;-60
2023/03/25 05:55:01;;;;;;;1.25;0.38;;;8.90;74.40;;;;;;5013834;28;20076;-60
2023/03/25 05:57:27;;;;;;;1.27;0.20;;;8.80;74.40;;;;;;5012570;28;20050;-59
2023/03/25 05:59:52;;;;;;;1.30;0.30;;;8.80;74.60;;;;;;5013774;28;20052;-59
2023/03/25 06:02:19;;;;;;;0.68;0.30;;;8.80;74.80;;;;;;5012910;28;20050;-60
2023/03/25 06:04:49;;;;;;;0.32;0.20;;;8.70;75.10;;;;;;5013064;28;20048;-59
2023/03/25 06:07:21;;;;;;;0.63;0.30;;;8.70;75.30;;;;;;5014181;28;20489;-60
2023/03/25 06:09:48;;;;;;;0.73;0.22;;;8.70;75.30;;;;;;5015442;28;20056;-60
2023/03/25 06:12:16;;;;;;;0.20;0.13;;;8.70;75.30;;;;;;5014221;28;20490;-60
2023/03/25 06:14:44;;;;;;;1.58;0.30;;;8.60;75.30;;;;;;5010382;28;20120;-60
2023/03/25 06:17:20;;;;;;;1.60;0.32;;;8.60;75.40;;;;;;5013762;28;20038;-60
2023/03/25 06:19:47;;;;;;;2.30;0.40;;;8.60;75.40;;;;;;5011729;28;20034;-60
2023/03/25 06:22:13;;;;;;;0.40;0.20;;;8.60;75.50;;;;;;5010907;28;20081;-60
2023/03/25 06:24:40;;;;;;;3.50;0.38;;;8.60;75.60;;;;;;5013640;28;20141;-60
2023/03/25 06:27:07;;;;;;;0.98;0.20;;;8.50;75.70;;;;;;5013463;28;20500;-60
2023/03/25 06:29:35;;;;;;;1.88;0.20;;;8.50;75.80;;;;;;5012022;28;20045;-60
2023/03/25 06:32:02;;;;;;;1.02;0.30;;;8.50;75.80;;;;;;5013798;28;20140;-60
2023/03/25 06:34:27;;;;;;;3.30;0.57;;;8.50;75.90;;;;;;5013128;28;20038;-60
2023/03/25 06:36:53;;;;;;;1.48;0.88;;;8.50;76.10;;;;;;5014021;28;20091;-60
2023/03/25 06:39:20;;;;;;;3.47;0.60;;;8.50;76.30;;;;;;5014837;28;20030;-61
2023/03/25 06:41:45;;;;;;;2.67;0.60;;;8.40;76.40;;;;;;5015632;28;20461;-60
2023/03/25 06:44:11;;;;;;;0.93;0.32;;;8.40;76.40;;;;;;5014135;28;20497;-60
2023/03/25 06:46:37;;;;;;;2.55;1.30;;;8.40;76.40;;;;;;5015123;28;20049;-60
2023/03/25 06:49:02;;;;;;;1.77;0.60;;;8.40;76.60;;;;;;5016432;28;20133;-61
2023/03/25 06:51:28;;;;;;;3.67;0.40;;;8.50;76.80;;;;;;5016309;28;20032;-60
2023/03/25 06:53:53;;;;;;;0.60;0.38;;;8.40;76.60;;;;;;5016044;28;20033;-60
2023/03/25 06:56:19;;;;;;;1.98;0.50;;;8.40;76.90;;;;;;5001638;28;20053;-59
2023/03/25 06:58:45;;;;;;;1.83;0.52;;;8.50;77.00;;;;;;5006014;28;20045;-59
2023/03/25 07:01:10;;;;;;;1.33;0.30;;;8.50;77.00;;;;;;5009126;28;20044;-60
2023/03/25 07:03:36;;;;;;;2.13;0.40;;;8.50;77.10;;;;;;5004176;28;20056;-59
2023/03/25 07:06:03;;;;;;;1.17;0.50;;;8.50;77.00;;;;;;5011795;28;20107;-60
2023/03/25 07:08:29;;;;;;;1.20;0.30;;;8.60;77.00;;;;;;5010777;28;20649;-61
2023/03/25 07:11:00;;;;;;;1.48;0.40;;;8.60;77.20;;;;;;5005512;28;20057;-61
2023/03/25 07:13:26;;;;;;;0.50;0.20;;;8.60;77.30;;;;;;5006734;28;20025;-60
2023/03/25 07:15:55;;;;;;;0.70;0.35;;;8.60;77.20;;;;;;5012909;28;20048;-60
2023/03/25 07:18:20;;;;;;;0.50;0.40;;;8.70;77.20;;;;;;5013452;28;20068;-60
2023/03/25 07:20:46;;;;;;;2.28;0.40;;;8.70;77.10;;;;;;5009996;28;20058;-61
2023/03/25 07:23:12;;;;;;;1.02;0.32;;;8.70;77.10;;;;;;5012045;28;20065;-61
2023/03/25 07:25:37;;;;;;;1.00;0.15;;;8.80;77.20;;;;;;5012505;28;20034;-60
2023/03/25 07:28:03;;;;;;;1.23;0.20;;;8.80;77.10;;;;;;5012802;28;20030;-60
2023/03/25 07:30:29;;;;;;;1.38;0.13;;;8.90;77.00;;;;;;5010086;28;20026;-61
2023/03/25 07:32:54;;;;;;;0.60;0.38;;;8.90;76.80;;;;;;5011866;28;20030;-61
2023/03/25 07:35:20;;;;;;;0.80;0.38;;;9.00;76.90;;;;;;5012024;28;20033;-61
2023/03/25 07:37:46;;;;;;;0.30;0.17;;;9.00;76.80;;;;;;4995523;28;20034;-59
2023/03/25 07:40:12;;;;;;;0.98;0.43;;;9.00;76.70;;;;;;4998730;28;20198;-61
2023/03/25 07:42:37;;;;;;;1.15;0.20;;;9.00;76.70;;;;;;5006805;28;20030;-61
2023/03/25 07:45:04;;;;;;;0.30;0.20;;;9.00;76.60;;;;;;5005283;28;20092;-63
2023/03/25 07:47:30;;;;;;;0.73;0.20;;;9.10;76.60;;;;;;5001718;28;20299;-60
2023/03/25 07:49:55;;;;;;;0.45;0.20;;;9.10;76.80;;;;;;5005944;28;20735;-61
2023/03/25 07:52:21;;;;;;;0.98;0.20;;;9.10;76.60;;;;;;5006728;28;20041;-61
2023/03/25 07:54:47;;;;;;;2.60;0.30;;;9.10;76.50;;;;;;5004406;28;20041;-61
2023/03/25 07:57:12;;;;;;;0.50;0.28;;;9.10;76.10;;;;;;5007443;28;20056;-61
2023/03/25 07:59:38;;;;;;;1.27;0.40;;;9.10;76.10;;;;;;5011798;28;20038;-62
2023/03/25 08:02:04;;;;;;;2.60;0.70;;;9.20;76.50;;;;;;5012252;28;20029;-63
2023/03/25 08:04:30;;;;;;;1.48;0.60;;;9.20;76.80;;;;;;5013314;28;20041;-61
2023/03/25 08:06:55;;;;;;;0.88;0.45;;;9.30;77.00;;;;;;5013369;28;20045;-61
2023/03/25 08:09:21;;;;;;;2.90;0.50;;;9.30;76.80;;;;;;5014031;28;20143;-61
2023/03/25 08:11:47;;;;;;;1.75;0.40;;;9.40;76.60;;;;;;5009167;28;20048;-61
2023/03/25 08:14:13;;;;;;;1.08;0.40;;;9.40;76.60;;;;;;5015071;28;20040;-61
2023/03/25 08:16:39;;;;;;;0.30;0.22;;;9.50;76.60;;;;;;5010053;28;20033;-62
2023/03/25 08:19:04;;;;;;;1.15;0.38;;;9.50;76.50;;;;;;5011869;28;20038;-61
2023/03/25 08:21:30;;;;;;;0.60;0.30;;;9.60;76.30;;;;;;5006737;28;20026;-59
2023/03/25 08:24:05;;;;;;;1.13;0.30;;;9.60;76.20;;;;;;5009732;28;20041;-61
2023/03/25 08:26:32;;;;;;;2.15;0.20;;;9.60;76.20;;;;;;5011071;28;20029;-62
2023/03/25 08:29:01;;;;;;;0.70;0.30;;;9.60;76.30;;;;;;5014359;28;20026;-61
2023/03/25 08:31:29;;;;;;;0.57;0.30;;;9.70;76.50;;;;;;5010894;28;20068;-61
2023/03/25 08:33:59;;;;;;;2.75;0.50;;;9.70;76.30;;;;;;5012372;28;20076;-61
2023/03/25 08:36:25;;;;;;;1.35;0.32;;;9.80;76.30;;;;;;5007162;28;20030;-60
2023/03/25 08:38:51;;;;;;;1.60;0.45;;;9.80;76.30;;;;;;5012390;28;20401;-60
2023/03/25 08:41:17;;;;;;;1.73;0.30;;;9.90;76.10;;;;;;5008412;28;20037;-61
2023/03/25 08:43:43;;;;;;;2.50;0.52;;;9.90;75.80;;;;;;5007214;28;20231;-61
2023/03/25 08:46:09;;;;;;;1.00;0.38;;;10.00;75.80;;;;;;5014383;28;20042;-61
2023/03/25 08:48:34;;;;;;;1.92;0.63;;;10.00;76.00;;;;;;5014026;28;20044;-60
2023/03/25 08:51:00;;;;;;;2.03;0.35;;;10.10;76.00;;;;;;5011613;28;20574;-60
2023/03/25 08:53:26;;;;;;;1.95;0.30;;;10.20;76.00;;;;;;5012409;28;20088;-62
2023/03/25 08:55:53;;;;;;;1.23;0.40;;;10.20;75.80;;;;;;5013710;28;20040;-59
2023/03/25 08:58:19;;;;;;;16.25;10.73;;;10.30;75.20;;;;;;5016116;28;20056;-61
2023/03/25 09:00:45;;;;;;;3.50;2.10;;;10.40;75.10;;;;;;5013278;28;20103;-60
2023/03/25 09:03:11;;;;;;;9.73;8.35;;;10.40;74.80;;;;;;5010521;28;20544;-61
2023/03/25 09:05:38;;;;;;;21.02;14.05;;;10.50;74.70;;;;;;5012831;28;20069;-59
2023/03/25 09:08:04;;;;;;;6.57;4.57;;;10.50;74.60;;;;;;5009876;28;20030;-61
2023/03/25 09:10:30;;;;;;;68.97;41.60;;;10.50;74.60;;;;;;5016592;28;20490;-61
2023/03/25 09:12:56;;;;;;;8.55;5.85;;;10.60;74.70;;;;;;5011531;28;20026;-60
2023/03/25 09:15:21;;;;;;;7.10;4.93;;;10.50;74.40;;;;;;5016263;28;20048;-60
2023/03/25 09:17:47;;;;;;;20.65;13.77;;;10.60;74.40;;;;;;5013989;28;20080;-55
2023/03/25 09:20:13;;;;;;;6.10;3.15;;;10.60;74.30;;;;;;5010933;28;20426;-61
2023/03/25 09:22:39;;;;;;;4.20;1.20;;;10.60;74.10;;;;;;5010485;28;20116;-61
2023/03/25 09:25:06;;;;;;;3.63;0.80;;;10.60;73.80;;;;;;5015799;28;20113;-58
2023/03/25 09:27:32;;;;;;;5.00;1.02;;;10.70;73.40;;;;;;5016465;28;20763;-61
2023/03/25 09:29:57;;;;;;;1.98;1.27;;;10.70;73.30;;;;;;5011538;28;20037;-61
2023/03/25 09:32:24;;;;;;;1.65;0.60;;;10.70;73.70;;;;;;5013197;28;20091;-59
2023/03/25 09:34:50;;;;;;;0.80;0.40;;;10.70;74.00;;;;;;5012973;28;20596;-60
2023/03/25 09:37:16;;;;;;;2.05;0.32;;;10.70;73.90;;;;;;5010688;28;20307;-61
2023/03/25 09:39:41;;;;;;;1.15;0.52;;;10.70;73.70;;;;;;5012984;28;20049;-61
2023/03/25 09:42:32;;;;;;;2.85;0.40;;;10.70;73.90;;;;;;5015304;28;20049;-61
2023/03/25 09:45:23;;;;;;;1.77;0.50;;;10.70;73.70;;;;;;5017557;28;20038;-61
2023/03/25 09:48:11;;;;;;;1.80;0.50;;;10.80;73.60;;;;;;5016421;28;20034;-58
2023/03/25 09:50:38;;;;;;;1.27;0.40;;;10.80;73.50;;;;;;5009681;28;20072;-60
2023/03/25 09:53:25;;;;;;;1.23;0.50;;;10.80;73.70;;;;;;5016509;28;20501;-61
2023/03/25 09:55:52;;;;;;;2.25;0.47;;;10.80;73.90;;;;;;5015063;28;20045;-60
2023/03/25 09:58:20;;;;;;;1.75;0.30;;;10.90;74.30;;;;;;5004956;28;20045;-59
2023/03/25 10:00:50;;;;;;;2.47;0.47;;;10.90;74.40;;;;;;4996429;28;20046;-61
2023/03/25 10:03:44;;;;;;;0.60;0.40;;;11.00;74.20;;;;;;5010672;28;20026;-61
2023/03/25 10:06:14;;;;;;;0.98;0.28;;;11.10;73.20;;;;;;5011855;28;20383;-61
2023/03/25 10:09:17;;;;;;;1.75;0.30;;;11.20;73.20;;;;;;5010979;28;20493;-61
2023/03/25 10:11:51;;;;;;;0.68;0.43;;;11.20;72.40;;;;;;5006367;28;20045;-61
2023/03/25 10:14:31;;;;;;;0.80;0.30;;;11.30;72.80;;;;;;5009587;28;20029;-61
2023/03/25 10:17:16;;;;;;;1.48;0.22;;;11.40;72.70;;;;;;5006851;28;20022;-60
2023/03/25 10:20:05;;;;;;;1.85;0.30;;;11.40;73.30;;;;;;5007735;28;20029;-61
2023/03/25 10:22:49;;;;;;;2.05;0.60;;;11.50;71.80;;;;;;5012601;28;20038;-61
2023/03/25 10:25:19;;;;;;;0.20;0.20;;;11.50;70.90;;;;;;5012489;28;20038;-61
2023/03/25 10:27:50;;;;;;;2.78;0.30;;;11.60;70.70;;;;;;5012795;28;20457;-61
2023/03/25 10:30:29;;;;;;;0.75;0.47;;;11.70;70.40;;;;;;5015030;28;20110;-61
2023/03/25 10:32:57;;;;;;;0.20;0.20;;;11.70;69.90;;;;;;5017180;28;20026;-60
2023/03/25 10:35:31;;;;;;;1.27;0.30;;;11.70;70.10;;;;;;5008761;28;20094;-61
2023/03/25 10:38:17;;;;;;;0.25;0.00;;;11.70;70.20;;;;;;5017407;28;20037;-61
2023/03/25 10:40:48;;;;;;;0.10;0.10;;;11.80;69.10;;;;;;5011949;28;20095;-61
2023/03/25 10:43:25;;;;;;;0.47;0.10;;;11.70;69.20;;;;;;5014515;28;20064;-58
2023/03/25 10:45:59;;;;;;;0.17;0.10;;;11.80;68.90;;;;;;5008695;28;20095;-58
2023/03/25 10:48:27;;;;;;;0.40;0.30;;;11.80;68.50;;;;;;5004066;28;20037;-61
2023/03/25 10:51:02;;;;;;;1.73;0.32;;;11.90;68.90;;;;;;5000241;28;20167;-60
2023/03/25 10:53:28;;;;;;;0.25;0.10;;;11.90;68.90;;;;;;5007108;28;20108;-60
2023/03/25 10:56:03;;;;;;;0.30;0.10;;;11.90;68.90;;;;;;5006008;28;20037;-61
2023/03/25 10:58:30;;;;;;;0.98;0.20;;;11.90;67.90;;;;;;5013870;28;20045;-60
2023/03/25 11:00:55;;;;;;;0.30;0.15;;;11.90;68.60;;;;;;5014549;28;20122;-61
2023/03/25 11:03:32;;;;;;;1.50;0.20;;;11.90;68.70;;;;;;5013343;28;20156;-59
2023/03/25 11:05:58;;;;;;;1.13;0.20;;;11.90;67.80;;;;;;5014460;28;20364;-60
2023/03/25 11:08:24;;;;;;;0.40;0.28;;;12.00;67.60;;;;;;5012789;28;20172;-60
2023/03/25 11:10:55;;;;;;;0.47;0.20;;;12.00;68.00;;;;;;5011157;28;20116;-61
2023/03/25 11:13:27;;;;;;;0.05;0.00;;;12.00;67.50;;;;;;5010336;28;20524;-61
2023/03/25 11:15:56;;;;;;;0.28;0.10;;;12.00;66.80;;;;;;5014330;28;20036;-59
2023/03/25 11:18:27;;;;;;;0.43;0.10;;;12.00;67.30;;;;;;5012643;28;20034;-61
2023/03/25 11:20:59;;;;;;;0.25;0.20;;;12.00;67.10;;;;;;5011269;28;20030;-61
2023/03/25 11:23:33;;;;;;;0.28;0.10;;;12.00;67.60;;;;;;5012901;28;20497;-59
2023/03/25 11:26:06;;;;;;;0.17;0.10;;;12.00;67.40;;;;;;5012229;28;20387;-61
2023/03/25 11:28:37;;;;;;;0.10;0.10;;;12.00;66.90;;;;;;5014135;28;20030;-60
2023/03/25 11:31:14;;;;;;;1.00;0.10;;;12.00;67.10;;;;;;5013359;28;20037;-61
2023/03/25 11:33:40;;;;;;;0.30;0.10;;;12.00;66.00;;;;;;5012319;28;20037;-59
2023/03/25 11:36:25;;;;;;;0.10;0.03;;;12.00;66.50;;;;;;5013004;28;20038;-60
2023/03/25 11:38:57;;;;;;;0.13;0.03;;;12.00;66.10;;;;;;5011291;28;20041;-61
2023/03/25 11:41:23;;;;;;;0.32;0.10;;;12.00;66.50;;;;;;5013817;28;20033;-60
2023/03/25 11:43:49;;;;;;;0.98;0.20;;;12.00;66.50;;;;;;5007255;28;20037;-59
2023/03/25 11:46:17;;;;;;;0.10;0.10;;;12.00;66.90;;;;;;5012875;28;20059;-60
2023/03/25 11:48:48;;;;;;;0.10;0.00;;;12.10;67.00;;;;;;5013602;28;20044;-58
2023/03/25 11:51:20;;;;;;;0.85;0.10;;;12.10;67.60;;;;;;5011026;28;20041;-60
2023/03/25 11:53:50;;;;;;;0.43;0.43;;;12.20;66.90;;;;;;5009957;28;20411;-60
2023/03/25 11:56:21;;;;;;;2.35;0.10;;;12.20;66.60;;;;;;5013337;28;20473;-59
2023/03/25 11:58:48;;;;;;;0.38;0.10;;;12.20;66.40;;;;;;5011486;28;20049;-59
2023/03/25 12:01:24;;;;;;;0.40;0.10;;;12.30;65.60;;;;;;5008522;28;20295;-61
2023/03/25 12:03:51;;;;;;;1.13;0.10;;;12.40;66.00;;;;;;5005741;28;20551;-61
2023/03/25 12:06:22;;;;;;;0.30;0.20;;;12.40;65.70;;;;;;5004964;28;20046;-61
2023/03/25 12:08:56;;;;;;;0.45;0.13;;;12.40;64.80;;;;;;5002774;28;20086;-62
2023/03/25 12:11:30;;;;;;;0.20;0.20;;;12.50;65.20;;;;;;5007048;28;20060;-60
2023/03/25 12:14:25;;;;;;;0.68;0.15;;;12.50;65.80;;;;;;4996906;28;20310;-61
2023/03/25 12:16:59;;;;;;;1.73;0.32;;;12.60;65.50;;;;;;5007544;28;20042;-61
2023/03/25 12:19:35;;;;;;;0.20;0.10;;;12.70;65.50;;;;;;5003836;28;20045;-60
2023/03/25 12:22:24;;;;;;;1.73;0.13;;;12.80;63.80;;;;;;5005510;28;20034;-60
2023/03/25 12:25:28;;;;;;;0.38;0.10;;;12.90;64.80;;;;;;5009650;28;20068;-62
2023/03/25 12:28:11;;;;;;;0.15;0.10;;;13.00;64.00;;;;;;5005645;28;20072;-61
2023/03/25 12:30:46;;;;;;;0.40;0.10;;;13.10;64.30;;;;;;5005968;28;20034;-61
2023/03/25 12:33:27;;;;;;;0.57;0.10;;;13.10;63.50;;;;;;5009041;28;20041;-61
2023/03/25 12:36:23;;;;;;;0.43;0.10;;;13.20;63.10;;;;;;5005298;28;20030;-61
2023/03/25 12:39:22;;;;;;;0.77;0.10;;;13.20;62.50;;;;;;5004494;28;20036;-61
2023/03/25 12:42:33;;;;;;;0.68;0.20;;;13.30;60.80;;;;;;5008671;28;20053;-61
2023/03/25 12:45:26;;;;;;;1.88;0.15;;;13.30;61.60;;;;;;5006646;28;20145;-60
2023/03/25 12:48:03;;;;;;;0.38;0.30;;;13.30;61.70;;;;;;5001729;28;20053;-58
2023/03/25 12:50:36;;;;;;;1.75;0.20;;;13.30;61.90;;;;;;5000256;28;21320;-61
2023/03/25 12:53:30;;;;;;;2.83;0.13;;;13.30;62.30;;;;;;4996399;28;20042;-60
2023/03/25 12:56:30;;;;;;;0.20;0.20;;;13.40;61.50;;;;;;5001970;28;20038;-60
2023/03/25 12:59:23;;;;;;;0.25;0.15;;;13.30;62.30;;;;;;4999101;28;20129;-59
2023/03/25 13:01:52;;;;;;;0.47;0.20;;;13.30;62.30;;;;;;4993871;28;20140;-61
2023/03/25 13:04:23;;;;;;;0.52;0.20;;;13.30;62.00;;;;;;4999268;28;20125;-60
2023/03/25 13:07:01;;;;;;;0.85;0.20;;;13.30;62.00;;;;;;4992530;28;20049;-60
2023/03/25 13:09:51;;;;;;;0.73;0.20;;;13.20;62.00;;;;;;4997601;28;20137;-59